createdAt,value
2019-04-20T00:01:03.619Z,81.20
2019-04-20T00:03:38.020Z,81.60
2019-04-20T00:06:03.399Z,81.90
2019-04-20T00:08:36.067Z,82.10
2019-04-20T00:11:08.047Z,82.10
2019-04-20T00:13:42.643Z,82.20
2019-04-20T00:16:02.298Z,82.10
2019-04-20T00:18:36.815Z,82.20
2019-04-20T00:21:08.147Z,82.40
2019-04-20T00:23:40.437Z,81.40
2019-04-20T00:26:33.822Z,81.80
2019-04-20T00:29:07.126Z,81.70
2019-04-20T00:31:35.365Z,81.30
2019-04-20T00:34:02.746Z,80.80
2019-04-20T00:36:22.108Z,80.10
2019-04-20T00:38:56.136Z,79.20
2019-04-20T00:41:22.484Z,79.00
2019-04-20T00:43:51.219Z,78.80
2019-04-20T00:46:26.392Z,78.00
2019-04-20T00:48:55.864Z,77.80
2019-04-20T00:51:35.359Z,77.10
2019-04-20T00:53:52.387Z,76.60
2019-04-20T00:56:20.254Z,76.40
2019-04-20T00:59:03.265Z,76.60
2019-04-20T01:01:40.712Z,75.40
2019-04-20T01:04:10.658Z,74.90
2019-04-20T01:06:39.541Z,74.50
2019-04-20T01:08:55.309Z,73.60
2019-04-20T01:11:30.891Z,73.30
2019-04-20T01:14:00.573Z,73.10
2019-04-20T01:16:36.832Z,72.90
2019-04-20T01:18:53.876Z,72.90
2019-04-20T01:21:26.409Z,72.70
2019-04-20T01:23:57.752Z,72.30
2019-04-20T01:26:24.001Z,72.10
2019-04-20T01:29:06.637Z,71.60
2019-04-20T01:31:32.201Z,71.40
2019-04-20T01:34:00.650Z,71.00
2019-04-20T01:36:42.493Z,71.00
2019-04-20T01:39:02.731Z,71.10
2019-04-20T01:41:22.857Z,70.70
2019-04-20T01:43:52.279Z,70.60
2019-04-20T01:46:23.495Z,70.90
2019-04-20T01:48:50.620Z,71.00
2019-04-20T01:51:26.335Z,70.70
2019-04-20T01:54:06.292Z,71.00
2019-04-20T01:56:36.145Z,70.60
2019-04-20T01:59:16.173Z,70.60
2019-04-20T02:01:42.371Z,70.90
2019-04-20T02:04:20.351Z,70.90
2019-04-20T02:06:50.639Z,71.00
2019-04-20T02:09:19.082Z,71.50
2019-04-20T02:11:47.367Z,71.60
2019-04-20T02:14:25.649Z,72.00
2019-04-20T02:16:49.609Z,72.30
2019-04-20T02:19:30.422Z,72.40
2019-04-20T02:22:01.460Z,72.80
2019-04-20T02:24:16.458Z,73.30
2019-04-20T02:26:45.209Z,73.80
2019-04-20T02:29:37.437Z,74.10
2019-04-20T02:37:30.886Z,75.40
2019-04-20T02:39:51.396Z,75.80
2019-04-20T02:42:26.474Z,76.50
2019-04-20T02:45:05.089Z,77.10
2019-04-20T02:47:35.741Z,77.90
2019-04-20T02:49:51.443Z,78.10
2019-04-20T02:52:28.836Z,78.40
2019-04-20T02:54:53.528Z,78.70
2019-04-20T02:57:33.422Z,78.90
2019-04-20T03:02:13.022Z,80.00
2019-04-20T03:04:31.729Z,80.50
2019-04-20T03:07:09.323Z,80.60
2019-04-20T03:09:41.580Z,81.00
2019-04-20T03:12:18.659Z,81.20
2019-04-20T03:14:39.354Z,81.50
2019-04-20T03:17:15.588Z,81.50
2019-04-20T03:22:15.570Z,81.20
2019-04-20T03:24:49.553Z,81.10
2019-04-20T03:27:10.792Z,81.10
2019-04-20T03:29:51.023Z,80.80
2019-04-20T03:33:00.412Z,80.70
2019-04-20T03:37:28.026Z,80.50
2019-04-20T03:39:46.614Z,80.40
2019-04-20T03:42:00.477Z,79.70
2019-04-20T03:44:32.166Z,80.10
2019-04-20T03:47:04.570Z,79.70
2019-04-20T03:49:54.998Z,79.60
2019-04-20T03:52:26.300Z,79.20
2019-04-20T03:55:15.130Z,78.90
2019-04-20T03:57:49.989Z,78.60
2019-04-20T04:00:31.440Z,78.30
2019-04-20T04:03:16.562Z,77.70
2019-04-20T04:05:50.878Z,76.40
2019-04-20T04:08:19.400Z,75.40
2019-04-20T04:10:58.138Z,75.00
2019-04-20T04:13:16.729Z,74.20
2019-04-20T04:15:53.295Z,73.60
2019-04-20T04:18:25.419Z,73.70
2019-04-20T04:20:52.031Z,73.20
2019-04-20T04:23:35.744Z,71.90
2019-04-20T04:26:05.757Z,70.50
2019-04-20T04:28:31.157Z,70.10
2019-04-20T04:31:08.205Z,70.20
2019-04-20T04:36:00.643Z,68.60
2019-04-20T04:38:37.431Z,68.60
2019-04-20T04:41:17.094Z,69.10
2019-04-20T04:43:37.062Z,69.50
2019-04-20T04:45:48.797Z,68.10
2019-04-20T04:48:23.805Z,66.20
2019-04-20T04:50:55.638Z,65.40
2019-04-20T04:53:30.882Z,63.80
2019-04-20T04:55:54.908Z,64.70
2019-04-20T04:58:17.793Z,65.90
2019-04-20T05:00:46.762Z,65.50
2019-04-20T05:03:37.581Z,64.50
2019-04-20T05:06:06.668Z,64.40
2019-04-20T05:08:25.284Z,62.80
2019-04-20T05:10:47.978Z,62.90
2019-04-20T05:13:17.686Z,65.30
2019-04-20T05:16:00.383Z,66.30
2019-04-20T05:18:43.228Z,65.80
2019-04-20T05:21:10.971Z,64.50
2019-04-20T05:23:31.907Z,63.60
2019-04-20T05:26:19.652Z,63.60
2019-04-20T05:28:41.656Z,62.40
2019-04-20T05:31:03.062Z,59.50
2019-04-20T05:33:48.862Z,56.80
2019-04-20T05:36:18.694Z,56.30
2019-04-20T05:39:10.289Z,54.80
2019-04-20T05:41:17.387Z,55.10
2019-04-20T05:43:52.387Z,54.10
2019-04-20T05:46:26.185Z,55.90
2019-04-20T05:48:56.197Z,57.20
2019-04-20T05:51:29.713Z,58.80
2019-04-20T05:53:59.465Z,59.10
2019-04-20T05:56:33.097Z,60.40
2019-04-20T05:58:56.584Z,61.60
2019-04-20T06:01:36.318Z,59.30
2019-04-20T06:03:55.455Z,58.50
2019-04-20T06:06:27.359Z,58.20
2019-04-20T06:09:08.562Z,56.30
2019-04-20T06:11:30.373Z,56.30
2019-04-20T06:13:50.534Z,56.10
2019-04-20T06:16:44.091Z,55.90
2019-04-20T06:19:18.344Z,56.70
2019-04-20T06:21:37.964Z,55.80
2019-04-20T06:24:20.788Z,53.10
2019-04-20T06:26:56.535Z,52.80
2019-04-20T06:29:15.225Z,55.00
2019-04-20T06:31:48.682Z,54.30
2019-04-20T06:34:30.495Z,51.20
2019-04-20T06:36:53.579Z,49.30
2019-04-20T06:39:44.754Z,48.80
2019-04-20T06:44:32.113Z,45.10
2019-04-20T06:47:02.741Z,44.20
2019-04-20T06:49:33.333Z,41.70
2019-04-20T06:51:59.228Z,37.90
2019-04-20T06:54:20.028Z,37.20
2019-04-20T06:57:00.316Z,34.20
2019-04-20T06:59:32.044Z,31.00
2019-04-20T07:02:02.872Z,33.60
2019-04-20T07:07:10.222Z,36.80
2019-04-20T07:09:42.060Z,34.30
2019-04-20T07:11:59.507Z,30.80
2019-04-20T07:14:23.371Z,31.50
2019-04-20T07:17:10.954Z,28.40
2019-04-20T07:19:40.230Z,29.30
2019-04-20T07:22:25.113Z,32.00
2019-04-20T07:24:59.269Z,29.90
2019-04-20T07:27:17.828Z,29.50
2019-04-20T07:29:52.333Z,31.50
2019-04-20T07:32:14.160Z,29.90
2019-04-20T07:34:52.450Z,27.60
2019-04-20T07:39:53.842Z,28.00
2019-04-20T07:42:24.287Z,27.90
2019-04-20T07:44:55.480Z,26.60
2019-04-20T07:47:30.461Z,24.90
2019-04-20T07:49:45.868Z,24.00
2019-04-20T07:52:01.670Z,25.60
2019-04-20T07:55:14.887Z,24.20
2019-04-20T07:57:21.454Z,24.30
2019-04-20T07:59:55.178Z,25.00
2019-04-20T08:02:32.013Z,25.20
2019-04-20T08:04:51.208Z,24.10
2019-04-20T08:07:08.740Z,24.10
2019-04-20T08:09:42.082Z,23.70
2019-04-20T08:12:32.552Z,22.30
2019-04-20T08:15:05.060Z,22.70
2019-04-20T08:17:30.913Z,23.90
2019-04-20T08:19:52.158Z,24.10
2019-04-20T08:22:26.980Z,23.80
2019-04-20T08:24:52.340Z,23.30
2019-04-20T08:27:13.211Z,23.60
2019-04-20T08:29:52.975Z,23.50
2019-04-20T08:32:34.619Z,27.30
2019-04-20T08:35:08.174Z,29.10
2019-04-20T08:37:31.032Z,27.20
2019-04-20T08:40:10.181Z,27.10
2019-04-20T08:42:37.936Z,26.00
2019-04-20T08:45:08.386Z,25.60
2019-04-20T08:50:21.290Z,27.50
2019-04-20T08:55:09.272Z,25.40
2019-04-20T08:57:24.900Z,25.40
2019-04-20T08:59:54.357Z,23.60
2019-04-20T09:02:23.871Z,25.70
2019-04-20T09:04:59.165Z,24.30
2019-04-20T09:07:25.169Z,25.60
2019-04-20T09:10:16.641Z,23.30
2019-04-20T09:12:40.887Z,22.40
2019-04-20T09:14:53.105Z,21.10
2019-04-20T09:17:44.747Z,19.90
2019-04-20T09:20:16.479Z,19.90
2019-04-20T09:23:09.427Z,20.60
2019-04-20T09:28:07.459Z,25.50
2019-04-20T09:30:37.335Z,26.50
2019-04-20T09:33:14.522Z,25.70
2019-04-20T09:35:45.583Z,24.40
2019-04-20T09:38:14.604Z,22.90
2019-04-20T09:40:44.899Z,22.50
2019-04-20T09:43:00.338Z,22.90
2019-04-20T09:45:37.512Z,23.40
2019-04-20T09:48:01.834Z,24.90
2019-04-20T09:50:52.221Z,27.70
2019-04-20T09:53:17.400Z,27.60
2019-04-20T09:55:42.451Z,26.90
2019-04-20T09:58:12.584Z,29.50
2019-04-20T10:00:56.848Z,27.50
2019-04-20T10:03:12.894Z,28.70
2019-04-20T10:05:41.496Z,25.50
2019-04-20T10:08:10.404Z,27.00
2019-04-20T10:10:42.629Z,28.70
2019-04-20T10:13:11.125Z,27.30
2019-04-20T10:15:39.793Z,27.30
2019-04-20T10:18:08.251Z,29.40
2019-04-20T10:20:38.891Z,36.40
2019-04-20T10:23:06.842Z,41.60
2019-04-20T10:25:36.318Z,43.40
2019-04-20T10:28:05.515Z,44.00
2019-04-20T10:30:34.719Z,44.60
2019-04-20T10:33:03.590Z,44.20
2019-04-20T10:35:32.156Z,45.60
2019-04-20T10:38:05.419Z,45.50
2019-04-20T10:40:46.355Z,47.60
2019-04-20T10:43:04.635Z,46.80
2019-04-20T10:45:35.042Z,48.60
2019-04-20T10:48:03.419Z,50.50
2019-04-20T10:50:32.372Z,50.90
2019-04-20T10:53:01.622Z,50.20
2019-04-20T10:55:31.335Z,49.70
2019-04-20T10:57:59.865Z,49.20
2019-04-20T11:00:46.034Z,50.10
2019-04-20T11:03:15.787Z,49.10
2019-04-20T11:05:44.708Z,50.00
2019-04-20T11:08:14.736Z,49.60
2019-04-20T11:10:55.718Z,49.50
2019-04-20T11:13:13.444Z,50.00
2019-04-20T11:15:42.257Z,49.60
2019-04-20T11:18:11.336Z,49.80
2019-04-20T11:20:39.869Z,50.00
2019-04-20T11:23:08.535Z,49.20
2019-04-20T11:25:37.978Z,49.80
2019-04-20T11:28:06.036Z,49.70
2019-04-20T11:30:34.501Z,51.60
2019-04-20T11:33:04.302Z,51.20
2019-04-20T11:35:37.675Z,51.30
2019-04-20T11:38:03.009Z,51.50
2019-04-20T11:40:31.391Z,51.30
2019-04-20T11:42:59.808Z,51.00
2019-04-20T11:45:28.787Z,51.20
2019-04-20T11:47:57.814Z,51.20
2019-04-20T11:50:27.511Z,51.20
2019-04-20T11:52:57.203Z,50.20
2019-04-20T11:55:26.667Z,50.30
2019-04-20T11:57:56.197Z,50.00
2019-04-20T12:00:28.093Z,51.10
2019-04-20T12:03:17.865Z,51.40
2019-04-20T12:05:44.505Z,52.00
2019-04-20T12:08:09.239Z,51.60
2019-04-20T12:10:39.077Z,52.50
2019-04-20T12:13:07.980Z,52.60
2019-04-20T12:15:38.585Z,52.30
2019-04-20T12:18:07.519Z,52.30
2019-04-20T12:20:36.573Z,52.80
2019-04-20T12:23:06.318Z,52.60
2019-04-20T12:25:36.693Z,51.50
2019-04-20T12:28:05.327Z,52.20
2019-04-20T12:30:33.808Z,51.80
2019-04-20T12:33:03.904Z,52.40
2019-04-20T12:35:32.385Z,52.90
2019-04-20T12:38:00.989Z,53.20
2019-04-20T12:40:30.142Z,53.30
2019-04-20T12:42:59.239Z,53.20
2019-04-20T12:45:27.717Z,53.00
2019-04-20T12:47:57.306Z,52.70
2019-04-20T12:50:26.038Z,51.10
2019-04-20T12:52:54.717Z,51.00
2019-04-20T12:55:23.258Z,51.60
2019-04-20T12:57:52.512Z,51.10
2019-04-20T13:00:21.539Z,51.30
2019-04-20T13:02:50.066Z,52.20
2019-04-20T13:05:20.127Z,52.20
2019-04-20T13:07:54.565Z,52.20
2019-04-20T13:10:18.541Z,52.60
2019-04-20T13:12:48.573Z,52.70
2019-04-20T13:15:40.532Z,53.10
2019-04-20T13:18:09.919Z,53.60
2019-04-20T13:20:39.621Z,54.00
2019-04-20T13:23:09.254Z,53.20
2019-04-20T13:25:38.900Z,53.50
2019-04-20T13:28:08.001Z,53.20
2019-04-20T13:30:37.577Z,53.20
2019-04-20T13:33:06.042Z,53.30
2019-04-20T13:35:34.499Z,53.10
2019-04-20T13:38:02.894Z,52.90
2019-04-20T13:40:31.359Z,53.20
2019-04-20T13:42:59.779Z,53.20
2019-04-20T13:45:28.794Z,53.30
2019-04-20T13:47:57.198Z,53.00
2019-04-20T13:50:26.253Z,53.10
2019-04-20T13:52:54.807Z,53.10
2019-04-20T13:55:24.947Z,53.70
2019-04-20T13:58:04.655Z,53.20
2019-04-20T14:00:40.901Z,52.80
2019-04-20T14:03:11.167Z,53.10
2019-04-20T14:05:40.504Z,52.70
2019-04-20T14:08:09.553Z,52.20
2019-04-20T14:10:39.585Z,52.40
2019-04-20T14:13:13.643Z,52.90
2019-04-20T14:15:38.181Z,52.80
2019-04-20T14:18:06.963Z,53.30
2019-04-20T14:20:36.237Z,54.00
2019-04-20T14:23:05.310Z,54.00
2019-04-20T14:25:33.959Z,54.40
2019-04-20T14:28:02.854Z,54.50
2019-04-20T14:30:31.234Z,54.40
2019-04-20T14:33:00.914Z,54.40
2019-04-20T14:35:29.475Z,53.70
2019-04-20T14:37:57.898Z,53.30
2019-04-20T14:40:26.312Z,53.10
2019-04-20T14:42:56.926Z,53.10
2019-04-20T14:45:26.776Z,52.80
2019-04-20T14:47:55.287Z,52.80
2019-04-20T14:50:23.696Z,52.80
2019-04-20T14:52:53.387Z,52.50
2019-04-20T14:55:22.600Z,52.60
2019-04-20T14:57:53.101Z,52.30
2019-04-20T15:00:39.520Z,52.40
2019-04-20T15:03:26.076Z,52.70
2019-04-20T15:05:56.172Z,53.60
2019-04-20T15:08:24.902Z,53.10
2019-04-20T15:10:54.309Z,53.20
2019-04-20T15:13:22.985Z,53.40
2019-04-20T15:15:52.629Z,53.40
2019-04-20T15:18:23.798Z,54.10
2019-04-20T15:20:55.412Z,54.80
2019-04-20T15:23:27.863Z,54.10
2019-04-20T15:25:56.307Z,54.60
2019-04-20T15:28:26.139Z,54.50
2019-04-20T15:30:56.153Z,55.00
2019-04-20T15:33:25.147Z,55.20
2019-04-20T15:35:53.589Z,55.00
2019-04-20T15:38:22.999Z,54.70
2019-04-20T15:40:51.149Z,55.00
2019-04-20T15:43:24.047Z,54.80
2019-04-20T15:45:49.665Z,54.80
2019-04-20T15:48:18.046Z,55.10
2019-04-20T15:50:47.732Z,55.80
2019-04-20T15:53:17.467Z,55.80
2019-04-20T15:55:47.409Z,55.90
2019-04-20T15:58:16.424Z,56.00
2019-04-20T16:00:44.939Z,56.00
2019-04-20T16:03:19.075Z,57.00
2019-04-20T16:05:56.518Z,56.20
2019-04-20T16:08:28.096Z,56.30
2019-04-20T16:10:57.389Z,56.40
2019-04-20T16:13:32.101Z,56.60
2019-04-20T16:15:56.047Z,56.40
2019-04-20T16:18:25.137Z,56.90
2019-04-20T16:21:02.431Z,56.80
2019-04-20T16:23:24.903Z,56.90
2019-04-20T16:26:11.426Z,57.00
2019-04-20T16:28:39.910Z,57.20
2019-04-20T16:31:11.526Z,57.10
2019-04-20T16:33:38.787Z,57.20
2019-04-20T16:36:08.251Z,57.20
2019-04-20T16:38:37.208Z,57.00
2019-04-20T16:41:06.590Z,57.20
2019-04-20T16:43:40.384Z,57.20
2019-04-20T16:46:05.477Z,57.30
2019-04-20T16:48:34.113Z,57.30
2019-04-20T16:51:02.975Z,57.00
2019-04-20T16:53:32.848Z,56.80
2019-04-20T16:56:01.504Z,56.90
2019-04-20T16:58:29.926Z,56.70
2019-04-20T17:00:59.270Z,56.80
2019-04-20T17:03:39.915Z,57.40
2019-04-20T17:05:56.538Z,57.60
2019-04-20T17:08:27.025Z,58.10
2019-04-20T17:10:55.956Z,58.40
2019-04-20T17:13:35.057Z,58.80
2019-04-20T17:15:55.492Z,59.10
2019-04-20T17:18:23.527Z,59.30
2019-04-20T17:20:53.329Z,59.50
2019-04-20T17:23:23.386Z,59.40
2019-04-20T17:25:52.443Z,59.30
2019-04-20T17:28:26.829Z,59.40
2019-04-20T17:31:09.268Z,59.10
2019-04-20T17:33:53.398Z,58.90
2019-04-20T17:36:18.759Z,58.50
2019-04-20T17:38:48.507Z,58.70
2019-04-20T17:41:31.188Z,58.80
2019-04-20T17:44:00.256Z,59.00
2019-04-20T17:46:27.299Z,58.80
2019-04-20T17:48:59.804Z,59.50
2019-04-20T17:51:34.656Z,59.40
2019-04-20T17:53:51.199Z,59.40
2019-04-20T17:56:15.218Z,59.70
2019-04-20T17:58:43.950Z,59.60
2019-04-20T18:01:32.799Z,59.90
2019-04-20T18:04:34.441Z,60.00
2019-04-20T18:06:47.788Z,59.90
2019-04-20T18:09:33.220Z,60.30
2019-04-20T18:11:42.691Z,60.30
2019-04-20T18:14:24.146Z,60.40
2019-04-20T18:17:05.191Z,60.60
2019-04-20T18:19:21.815Z,60.60
2019-04-20T18:21:45.909Z,60.70
2019-04-20T18:24:31.540Z,60.70
2019-04-20T18:27:05.594Z,61.00
2019-04-20T18:29:32.301Z,61.30
2019-04-20T18:31:59.552Z,61.60
2019-04-20T18:34:38.616Z,62.40
2019-04-20T18:37:19.627Z,63.00
2019-04-20T18:39:54.783Z,63.70
2019-04-20T18:42:24.929Z,64.20
2019-04-20T18:45:04.329Z,64.60
2019-04-20T18:47:33.127Z,65.00
2019-04-20T18:49:53.818Z,65.10
2019-04-20T18:52:16.142Z,65.20
2019-04-20T18:54:47.907Z,65.20
2019-04-20T18:57:21.776Z,65.60
2019-04-20T18:59:49.578Z,66.00
2019-04-20T19:02:19.889Z,66.20
2019-04-20T19:04:45.865Z,66.90
2019-04-20T19:07:14.377Z,67.00
2019-04-20T19:09:43.014Z,67.30
2019-04-20T19:12:14.569Z,67.50
2019-04-20T19:15:05.008Z,67.20
2019-04-20T19:17:48.718Z,67.30
2019-04-20T19:20:14.126Z,67.70
2019-04-20T19:22:44.016Z,67.80
2019-04-20T19:25:18.322Z,67.90
2019-04-20T19:27:48.958Z,68.20
2019-04-20T19:30:26.348Z,68.40
2019-04-20T19:33:02.404Z,68.40
2019-04-20T19:35:25.795Z,69.10
2019-04-20T19:37:56.300Z,69.60
2019-04-20T19:40:24.660Z,69.80
2019-04-20T19:42:59.049Z,70.00
2019-04-20T19:45:41.055Z,70.20
2019-04-20T19:48:04.363Z,70.30
2019-04-20T19:53:12.747Z,70.80
2019-04-20T19:55:27.574Z,70.90
2019-04-20T19:57:58.550Z,70.90
2019-04-20T20:00:14.620Z,71.10
2019-04-20T20:02:43.493Z,70.90
2019-04-20T20:05:15.730Z,71.00
2019-04-20T20:07:45.780Z,71.10
2019-04-20T20:10:12.871Z,71.20
2019-04-20T20:12:48.125Z,70.90
2019-04-20T20:15:22.302Z,71.10
2019-04-20T20:17:58.733Z,71.20
2019-04-20T20:20:35.962Z,71.20
2019-04-20T20:22:49.535Z,71.60
2019-04-20T20:25:13.234Z,72.00
2019-04-20T20:27:49.156Z,72.60
2019-04-20T20:30:20.480Z,73.30
2019-04-20T20:32:53.387Z,73.50
2019-04-20T20:35:16.707Z,73.80
2019-04-20T20:37:51.647Z,74.30
2019-04-20T20:40:18.800Z,74.70
2019-04-20T20:42:52.992Z,75.50
2019-04-20T20:45:24.040Z,75.70
2019-04-20T20:48:03.853Z,75.80
2019-04-20T20:52:57.889Z,75.80
2019-04-20T20:55:25.562Z,75.40
2019-04-20T20:57:53.585Z,75.30
2019-04-20T21:00:34.398Z,74.90
2019-04-20T21:02:50.320Z,75.20
2019-04-20T21:05:13.716Z,75.20
2019-04-20T21:07:42.738Z,75.20
2019-04-20T21:10:16.303Z,75.20
2019-04-20T21:12:46.513Z,75.40
2019-04-20T21:15:16.950Z,75.50
2019-04-20T21:18:13.027Z,75.60
2019-04-20T21:20:33.094Z,75.50
2019-04-20T21:23:01.381Z,75.70
2019-04-20T21:25:13.277Z,76.00
2019-04-20T21:27:42.524Z,76.30
2019-04-20T21:30:18.328Z,76.70
2019-04-20T21:32:46.564Z,77.20
2019-04-20T21:35:14.319Z,77.40
2019-04-20T21:37:48.289Z,77.80
2019-04-20T21:40:22.741Z,78.20
2019-04-20T21:42:48.340Z,78.80
2019-04-20T21:45:19.535Z,79.20
2019-04-20T21:47:43.560Z,79.60
2019-04-20T21:50:31.172Z,79.80
2019-04-20T21:52:46.775Z,79.30
2019-04-20T21:55:12.128Z,79.50
2019-04-20T21:57:48.638Z,79.90
2019-04-20T22:00:21.687Z,80.50
2019-04-20T22:02:46.709Z,81.30
2019-04-20T22:05:13.604Z,81.90
2019-04-20T22:07:42.223Z,81.60
2019-04-20T22:10:18.022Z,82.90
2019-04-20T22:12:47.583Z,82.50
2019-04-20T22:15:19.838Z,82.40
2019-04-20T22:17:41.550Z,82.30
2019-04-20T22:20:21.366Z,81.60
2019-04-20T22:22:58.601Z,81.20
2019-04-20T22:25:28.448Z,81.70
2019-04-20T22:27:42.211Z,82.80
2019-04-20T22:30:12.277Z,81.40
2019-04-20T22:32:43.265Z,81.40
2019-04-20T22:35:15.399Z,81.20
2019-04-20T22:37:58.731Z,80.10
2019-04-20T22:40:25.027Z,80.10
2019-04-20T22:42:56.137Z,80.30
2019-04-20T22:45:23.246Z,80.50
2019-04-20T22:47:58.838Z,80.60
2019-04-20T22:50:33.603Z,80.20
2019-04-20T22:53:05.021Z,80.40
2019-04-20T22:55:51.423Z,80.20
2019-04-20T22:58:01.053Z,80.20
2019-04-20T23:00:31.063Z,80.50
2019-04-20T23:02:52.343Z,80.70
2019-04-20T23:05:20.773Z,79.70
2019-04-20T23:07:50.500Z,78.20
2019-04-20T23:10:27.947Z,77.60
2019-04-20T23:12:53.319Z,77.10
2019-04-20T23:15:20.414Z,77.30
2019-04-20T23:17:51.804Z,79.00
2019-04-20T23:20:26.368Z,80.90
2019-04-20T23:22:51.159Z,82.00
2019-04-20T23:25:19.129Z,82.10
2019-04-20T23:27:51.238Z,82.80
2019-04-20T23:30:23.720Z,82.10
2019-04-20T23:32:47.619Z,80.70
2019-04-20T23:35:18.639Z,83.10
2019-04-20T23:37:46.513Z,85.90
2019-04-20T23:40:16.713Z,85.30
2019-04-20T23:42:49.919Z,87.10
2019-04-20T23:45:31.653Z,86.30
2019-04-20T23:48:05.348Z,86.10
2019-04-20T23:50:50.396Z,84.40
2019-04-20T23:53:22.899Z,85.70
2019-04-20T23:55:33.971Z,86.80
2019-04-20T23:58:06.731Z,86.00
